Meise, Belgium
Current Conditions -  °F | °C
As of 6:50 PM on Monday 24 Nov 2014 (Local Time) from EBBR Reporting Station
Clear Clear  
Wind Chill: 45°   Ceiling: Unl
Heat Index: 45°   Visibility: 6mi
Dew Point: 36°   Wind: 2mph
Humidity: 71%   Direction: 50°NE
Pressure: 30.33"   Gusts: NA
Location:  50.94°N, 4.33°E
Report Text: EBBR 241750Z 05002KT CAVOK 07/02 Q1027 NOSIG
Loading
Personal Weather Stations






























Interactive Weather Map New forecast layout! Learn more

10-Day Weather Forecast

Advertisements
Track Severe Weather on mobile